createdAt,value
2023-05-10T00:01:32.508Z,12.84
2023-05-10T00:04:36.982Z,12.90
2023-05-10T00:07:39.014Z,12.95
2023-05-10T00:10:43.586Z,12.94
2023-05-10T00:13:45.769Z,12.77
2023-05-10T00:16:48.139Z,12.84
2023-05-10T00:19:50.252Z,12.75
2023-05-10T00:22:52.577Z,12.59
2023-05-10T00:25:54.526Z,12.52
2023-05-10T00:28:57.828Z,12.55
2023-05-10T00:32:00.032Z,12.61
2023-05-10T00:35:02.478Z,12.52
2023-05-10T00:38:04.642Z,12.41
2023-05-10T00:41:07.578Z,12.43
2023-05-10T00:44:10.191Z,12.23
2023-05-10T00:47:12.748Z,12.07
2023-05-10T00:50:15.644Z,12.14
2023-05-10T00:53:18.879Z,12.17
2023-05-10T00:56:23.931Z,12.06
2023-05-10T00:59:26.844Z,12.04
2023-05-10T01:02:29.667Z,11.90
2023-05-10T01:05:32.887Z,11.88
2023-05-10T01:08:35.081Z,11.78
2023-05-10T01:11:39.104Z,11.85
2023-05-10T01:14:41.364Z,11.79
2023-05-10T01:17:45.765Z,11.71
2023-05-10T01:20:49.873Z,11.73
2023-05-10T01:24:05.006Z,11.79
2023-05-10T01:27:10.398Z,11.83
2023-05-10T01:30:16.001Z,11.83
2023-05-10T01:33:29.866Z,11.89
2023-05-10T01:36:32.147Z,11.88
2023-05-10T01:39:55.431Z,12.00
2023-05-10T01:43:02.411Z,12.10
2023-05-10T01:46:14.449Z,12.09
2023-05-10T01:49:22.357Z,12.02
2023-05-10T01:52:28.065Z,12.12
2023-05-10T01:55:33.116Z,12.02
2023-05-10T01:58:39.422Z,12.01
2023-05-10T02:01:43.733Z,12.13
2023-05-10T02:04:47.322Z,12.15
2023-05-10T02:07:50.346Z,12.26
2023-05-10T02:10:55.712Z,12.35
2023-05-10T02:13:58.251Z,12.24
2023-05-10T02:17:02.991Z,12.01
2023-05-10T02:20:07.345Z,12.17
2023-05-10T02:23:10.740Z,12.31
2023-05-10T02:26:14.453Z,12.31
2023-05-10T02:29:19.262Z,12.31
2023-05-10T02:32:22.544Z,12.17
2023-05-10T02:35:27.039Z,12.15
2023-05-10T02:38:29.326Z,12.35
2023-05-10T02:41:33.567Z,12.28
2023-05-10T02:44:37.343Z,12.28
2023-05-10T02:47:39.934Z,12.32
2023-05-10T02:50:44.050Z,12.58
2023-05-10T02:53:47.979Z,12.53
2023-05-10T02:56:56.325Z,12.59
2023-05-10T02:59:59.537Z,12.55
2023-05-10T03:03:02.389Z,12.41
2023-05-10T03:06:05.290Z,12.40
2023-05-10T03:09:08.781Z,12.40
2023-05-10T03:12:24.740Z,12.30
2023-05-10T03:15:36.485Z,12.25
2023-05-10T03:18:48.070Z,12.29
2023-05-10T03:21:52.284Z,12.04
2023-05-10T03:24:57.625Z,11.96
2023-05-10T03:28:02.355Z,11.82
2023-05-10T03:31:06.344Z,11.79
2023-05-10T03:34:09.219Z,11.85
2023-05-10T03:37:11.700Z,11.81
2023-05-10T03:40:14.180Z,11.96
2023-05-10T03:43:16.890Z,11.79
2023-05-10T03:46:19.085Z,11.79
2023-05-10T03:49:22.087Z,11.83
2023-05-10T03:52:24.204Z,11.90
2023-05-10T03:55:26.666Z,11.97
2023-05-10T03:58:29.060Z,11.86
2023-05-10T04:01:31.377Z,11.81
2023-05-10T04:04:33.703Z,11.98
2023-05-10T04:07:35.693Z,12.20
2023-05-10T04:10:38.493Z,12.16
2023-05-10T04:13:40.844Z,12.14
2023-05-10T04:16:43.532Z,12.11
2023-05-10T04:19:45.629Z,12.13
2023-05-10T04:22:47.870Z,12.22
2023-05-10T04:25:49.949Z,12.62
2023-05-10T04:28:52.360Z,12.78
2023-05-10T04:31:54.606Z,14.40
2023-05-10T04:34:56.929Z,16.48
2023-05-10T04:37:58.877Z,17.91
2023-05-10T04:41:04.730Z,19.20
2023-05-10T04:44:07.210Z,20.95
2023-05-10T04:47:12.510Z,21.29
2023-05-10T04:50:14.954Z,21.10
2023-05-10T04:53:17.364Z,22.56
2023-05-10T04:56:19.413Z,23.10
2023-05-10T04:59:21.653Z,23.37
2023-05-10T05:02:24.970Z,24.10
2023-05-10T05:05:27.312Z,24.27
2023-05-10T05:08:29.617Z,25.26
2023-05-10T05:11:32.089Z,23.73
2023-05-10T05:14:34.145Z,23.87
2023-05-10T05:17:36.852Z,23.59
2023-05-10T05:20:38.858Z,22.63
2023-05-10T05:23:41.305Z,20.61
2023-05-10T05:26:43.412Z,19.40
2023-05-10T05:29:46.020Z,19.54
2023-05-10T05:32:48.214Z,20.09
2023-05-10T05:35:51.827Z,21.80
2023-05-10T05:38:54.004Z,21.96
2023-05-10T05:41:56.240Z,23.12
2023-05-10T05:44:58.791Z,23.73
2023-05-10T05:48:01.309Z,24.90
2023-05-10T05:51:07.095Z,24.92
2023-05-10T05:54:10.245Z,24.90
2023-05-10T05:57:12.483Z,25.08
2023-05-10T06:00:15.082Z,25.51
2023-05-10T06:03:17.303Z,25.35
2023-05-10T06:06:19.874Z,25.94
2023-05-10T06:09:21.996Z,26.62
2023-05-10T06:12:24.456Z,27.43
2023-05-10T06:15:27.384Z,26.76
2023-05-10T06:18:29.644Z,27.97
2023-05-10T06:21:31.695Z,27.64
2023-05-10T06:24:34.092Z,27.83
2023-05-10T06:27:36.176Z,26.96
2023-05-10T06:30:39.109Z,26.34
2023-05-10T06:33:41.633Z,27.02
2023-05-10T06:36:44.006Z,27.17
2023-05-10T06:39:46.165Z,27.32
2023-05-10T06:42:49.082Z,26.85
2023-05-10T06:45:51.225Z,26.25
2023-05-10T06:48:53.710Z,25.53
2023-05-10T06:51:56.768Z,26.47
2023-05-10T06:54:59.190Z,26.89
2023-05-10T06:58:01.173Z,26.92
2023-05-10T07:01:04.261Z,27.24
2023-05-10T07:04:08.368Z,27.07
2023-05-10T07:07:10.649Z,27.53
2023-05-10T07:10:12.676Z,25.57
2023-05-10T07:13:15.191Z,25.55
2023-05-10T07:16:17.594Z,25.39
2023-05-10T07:19:20.496Z,24.94
2023-05-10T07:22:22.472Z,23.72
2023-05-10T07:25:25.122Z,22.21
2023-05-10T07:28:27.152Z,22.03
2023-05-10T07:31:29.757Z,21.68
2023-05-10T07:34:32.723Z,20.67
2023-05-10T07:37:35.023Z,21.53
2023-05-10T07:40:37.350Z,23.17
2023-05-10T07:43:39.641Z,23.55
2023-05-10T07:46:41.725Z,22.06
2023-05-10T07:49:44.474Z,22.22
2023-05-10T07:52:46.486Z,22.54
2023-05-10T07:55:52.748Z,21.97
2023-05-10T07:58:55.249Z,20.65
2023-05-10T08:01:57.655Z,21.24
2023-05-10T08:04:59.942Z,20.55
2023-05-10T08:08:02.064Z,19.53
2023-05-10T08:11:04.816Z,18.92
2023-05-10T08:14:07.015Z,19.42
2023-05-10T08:17:09.561Z,20.35
2023-05-10T08:20:13.730Z,20.44
2023-05-10T08:23:16.485Z,19.50
2023-05-10T08:26:18.490Z,19.48
2023-05-10T08:29:20.942Z,19.71
2023-05-10T08:32:23.025Z,19.66
2023-05-10T08:35:25.709Z,19.15
2023-05-10T08:38:28.095Z,18.84
2023-05-10T08:41:31.005Z,19.01
2023-05-10T08:44:33.430Z,18.38
2023-05-10T08:47:37.060Z,17.86
2023-05-10T08:50:42.882Z,18.81
2023-05-10T08:53:45.789Z,19.26
2023-05-10T08:56:49.836Z,19.22
2023-05-10T08:59:52.912Z,19.05
2023-05-10T09:02:55.235Z,18.83
2023-05-10T09:05:58.400Z,18.68
2023-05-10T09:09:00.959Z,18.66
2023-05-10T09:12:03.277Z,18.43
2023-05-10T09:15:07.053Z,18.72
2023-05-10T09:18:09.563Z,18.64
2023-05-10T09:21:11.769Z,18.57
2023-05-10T09:24:14.009Z,18.66
2023-05-10T09:27:16.023Z,19.21
2023-05-10T09:30:23.963Z,19.80
2023-05-10T09:33:26.338Z,20.21
2023-05-10T09:36:28.885Z,20.26
2023-05-10T09:39:35.697Z,19.46
2023-05-10T09:42:41.827Z,19.74
2023-05-10T09:45:43.807Z,19.29
2023-05-10T09:48:47.344Z,19.27
2023-05-10T09:52:00.372Z,19.73
2023-05-10T09:55:03.612Z,19.85
2023-05-10T09:58:10.365Z,19.35
2023-05-10T10:01:15.376Z,19.68
2023-05-10T10:04:17.827Z,19.92
2023-05-10T10:07:23.356Z,20.17
2023-05-10T10:10:26.629Z,20.44
2023-05-10T10:13:28.641Z,20.38
2023-05-10T10:16:31.585Z,20.48
2023-05-10T10:19:37.927Z,20.34
2023-05-10T10:22:40.732Z,20.72
2023-05-10T10:25:43.254Z,21.22
2023-05-10T10:28:46.997Z,21.00
2023-05-10T10:32:00.149Z,20.49
2023-05-10T10:35:10.440Z,20.45
2023-05-10T10:38:13.819Z,20.80
2023-05-10T10:41:30.074Z,20.26
2023-05-10T10:44:33.035Z,20.19
2023-05-10T10:47:37.917Z,20.15
2023-05-10T10:50:49.598Z,20.34
2023-05-10T10:53:52.551Z,20.47
2023-05-10T10:57:11.982Z,20.17
2023-05-10T11:00:29.123Z,19.60
2023-05-10T11:03:32.433Z,19.87
2023-05-10T11:06:36.509Z,20.03
2023-05-10T11:09:43.693Z,19.70
2023-05-10T11:12:55.180Z,19.59
2023-05-10T11:16:11.091Z,19.49
2023-05-10T11:19:17.743Z,19.52
2023-05-10T11:22:22.430Z,19.47
2023-05-10T11:25:27.756Z,19.57
2023-05-10T11:28:31.326Z,19.77
2023-05-10T11:31:38.714Z,20.17
2023-05-10T11:34:42.689Z,20.08
2023-05-10T11:37:49.174Z,20.55
2023-05-10T11:40:52.717Z,20.26
2023-05-10T11:43:55.683Z,20.12
2023-05-10T11:46:59.586Z,20.57
2023-05-10T11:50:02.472Z,20.10
2023-05-10T11:53:05.209Z,20.09
2023-05-10T11:56:08.478Z,19.69
2023-05-10T11:59:11.096Z,19.64
2023-05-10T12:02:16.611Z,20.11
2023-05-10T12:05:19.070Z,19.87
2023-05-10T12:08:22.421Z,20.41
2023-05-10T12:11:28.649Z,20.78
2023-05-10T12:14:34.874Z,20.84
2023-05-10T12:17:38.195Z,20.51
2023-05-10T12:20:41.501Z,20.30
2023-05-10T12:23:46.114Z,20.03
2023-05-10T12:26:54.398Z,20.09
2023-05-10T12:30:00.907Z,20.35
2023-05-10T12:33:08.290Z,20.29
2023-05-10T12:36:11.621Z,19.99
2023-05-10T12:39:13.680Z,20.33
2023-05-10T12:42:15.993Z,20.30
2023-05-10T12:45:18.667Z,20.71
2023-05-10T12:48:21.240Z,20.70
2023-05-10T12:51:23.720Z,20.83
2023-05-10T12:54:26.156Z,20.48
2023-05-10T12:57:28.757Z,20.31
2023-05-10T13:00:30.984Z,20.21
2023-05-10T13:03:33.123Z,20.17
2023-05-10T13:06:36.096Z,20.15
2023-05-10T13:09:38.042Z,20.26
2023-05-10T13:12:40.350Z,20.49
2023-05-10T13:15:42.362Z,20.88
2023-05-10T13:18:44.712Z,20.44
2023-05-10T13:21:46.764Z,20.49
2023-05-10T13:24:49.047Z,20.53
2023-05-10T13:27:51.132Z,20.54
2023-05-10T13:30:53.397Z,20.26
2023-05-10T13:33:55.507Z,20.18
2023-05-10T13:36:58.169Z,19.92
2023-05-10T13:40:00.156Z,19.76
2023-05-10T13:43:02.956Z,19.77
2023-05-10T13:46:05.018Z,19.60
2023-05-10T13:49:07.441Z,19.65
2023-05-10T13:52:10.933Z,19.77
2023-05-10T13:55:14.160Z,19.74
2023-05-10T13:58:16.129Z,19.74
2023-05-10T14:01:18.442Z,19.76
2023-05-10T14:04:20.729Z,19.71
2023-05-10T14:07:22.686Z,19.51
2023-05-10T14:10:24.954Z,19.67
2023-05-10T14:13:27.201Z,19.61
2023-05-10T14:16:29.726Z,19.67
2023-05-10T14:19:33.527Z,19.62
2023-05-10T14:22:36.307Z,19.76
2023-05-10T14:25:39.035Z,19.71
2023-05-10T14:28:41.673Z,19.76
2023-05-10T14:31:44.065Z,19.81
2023-05-10T14:34:46.621Z,19.89
2023-05-10T14:37:48.663Z,19.91
2023-05-10T14:40:54.097Z,19.79
2023-05-10T14:43:56.240Z,19.82
2023-05-10T14:46:58.471Z,20.08
2023-05-10T14:50:08.250Z,20.31
2023-05-10T14:53:10.749Z,20.47
2023-05-10T14:56:12.763Z,20.57
2023-05-10T14:59:15.210Z,20.61
2023-05-10T15:02:17.693Z,20.39
2023-05-10T15:05:20.778Z,20.42
2023-05-10T15:08:23.085Z,20.43
2023-05-10T15:11:25.319Z,20.19
2023-05-10T15:14:27.273Z,20.13
2023-05-10T15:17:29.492Z,19.71
2023-05-10T15:20:31.471Z,19.81
2023-05-10T15:23:33.770Z,19.59
2023-05-10T15:26:35.721Z,19.42
2023-05-10T15:29:37.957Z,19.23
2023-05-10T15:32:41.031Z,19.29
2023-05-10T15:35:43.288Z,19.32
2023-05-10T15:38:45.219Z,19.14
2023-05-10T15:41:48.087Z,19.11
2023-05-10T15:44:51.180Z,19.07
2023-05-10T15:47:53.430Z,19.06
2023-05-10T15:50:56.826Z,19.13
2023-05-10T15:54:06.939Z,19.17
2023-05-10T15:57:09.970Z,19.08
2023-05-10T16:00:13.029Z,19.01
2023-05-10T16:03:14.886Z,18.92
2023-05-10T16:06:17.412Z,18.83
2023-05-10T16:09:19.392Z,18.71
2023-05-10T16:12:21.816Z,18.68
2023-05-10T16:15:23.776Z,18.78
2023-05-10T16:18:26.273Z,18.72
2023-05-10T16:21:29.770Z,18.68
2023-05-10T16:24:32.098Z,18.74
2023-05-10T16:27:34.077Z,18.79
2023-05-10T16:30:36.426Z,18.77
2023-05-10T16:33:38.437Z,18.66
2023-05-10T16:36:41.107Z,18.74
2023-05-10T16:39:43.096Z,18.67
2023-05-10T16:42:45.419Z,18.64
2023-05-10T16:45:47.404Z,18.57
2023-05-10T16:48:49.704Z,18.48
2023-05-10T16:51:51.687Z,18.38
2023-05-10T16:54:57.166Z,18.33
2023-05-10T16:58:00.876Z,18.12
2023-05-10T17:01:03.409Z,18.06
2023-05-10T17:04:05.653Z,17.96
2023-05-10T17:07:08.682Z,17.78
2023-05-10T17:10:11.059Z,17.78
2023-05-10T17:13:13.306Z,17.80
2023-05-10T17:16:15.333Z,17.69
2023-05-10T17:19:17.647Z,17.61
2023-05-10T17:22:19.750Z,17.52
2023-05-10T17:25:22.073Z,17.51
2023-05-10T17:28:24.012Z,17.36
2023-05-10T17:31:26.748Z,17.29
2023-05-10T17:34:28.936Z,17.26
2023-05-10T17:37:32.987Z,17.19
2023-05-10T17:40:34.983Z,17.13
2023-05-10T17:43:37.251Z,17.04
2023-05-10T17:46:39.386Z,16.95
2023-05-10T17:49:42.046Z,16.91
2023-05-10T17:52:44.108Z,16.79
2023-05-10T17:55:47.048Z,16.76
2023-05-10T17:58:50.408Z,16.70
2023-05-10T18:01:52.792Z,16.64
2023-05-10T18:04:56.743Z,16.62
2023-05-10T18:08:00.215Z,16.59
2023-05-10T18:11:02.430Z,16.49
2023-05-10T18:14:04.664Z,16.42
2023-05-10T18:17:07.105Z,16.33
2023-05-10T18:20:09.967Z,16.27
2023-05-10T18:23:12.861Z,16.22
2023-05-10T18:26:14.888Z,16.23
2023-05-10T18:29:17.219Z,16.13
2023-05-10T18:32:19.172Z,16.17
2023-05-10T18:35:21.918Z,16.15
2023-05-10T18:38:24.272Z,16.15
2023-05-10T18:41:26.932Z,16.10
2023-05-10T18:44:29.160Z,16.04
2023-05-10T18:47:31.885Z,15.91
2023-05-10T18:50:33.820Z,15.93
2023-05-10T18:53:36.665Z,15.90
2023-05-10T18:56:44.342Z,15.82
2023-05-10T18:59:46.766Z,15.78
2023-05-10T19:02:48.903Z,15.74
2023-05-10T19:05:51.371Z,15.67
2023-05-10T19:08:53.490Z,15.78
2023-05-10T19:11:56.030Z,15.76
2023-05-10T19:14:57.957Z,15.84
2023-05-10T19:18:00.247Z,15.80
2023-05-10T19:21:04.526Z,15.81
2023-05-10T19:24:06.993Z,15.83
2023-05-10T19:27:09.199Z,15.84
2023-05-10T19:30:11.818Z,15.77
2023-05-10T19:33:13.804Z,15.68
2023-05-10T19:36:16.144Z,15.63
2023-05-10T19:39:18.160Z,15.62
2023-05-10T19:42:20.512Z,15.53
2023-05-10T19:45:22.815Z,15.66
2023-05-10T19:48:25.497Z,15.63
2023-05-10T19:51:27.561Z,15.75
2023-05-10T19:54:29.843Z,15.54
2023-05-10T19:57:31.796Z,15.54
2023-05-10T20:00:34.221Z,15.62
2023-05-10T20:03:36.567Z,15.60
2023-05-10T20:06:38.661Z,15.50
2023-05-10T20:09:42.465Z,15.48
2023-05-10T20:12:52.491Z,15.51
2023-05-10T20:15:55.847Z,15.45
2023-05-10T20:18:57.911Z,15.52
2023-05-10T20:22:00.241Z,15.45
2023-05-10T20:25:02.312Z,15.52
2023-05-10T20:28:05.824Z,15.43
2023-05-10T20:31:07.963Z,15.39
2023-05-10T20:34:10.322Z,15.42
2023-05-10T20:37:12.231Z,15.34
2023-05-10T20:40:14.474Z,15.36
2023-05-10T20:43:16.455Z,15.26
2023-05-10T20:46:18.812Z,15.29
2023-05-10T20:49:21.031Z,15.25
2023-05-10T20:52:24.620Z,15.17
2023-05-10T20:55:26.997Z,15.08
2023-05-10T20:58:29.329Z,15.12
2023-05-10T21:01:31.889Z,15.09
2023-05-10T21:04:34.302Z,15.12
2023-05-10T21:07:36.447Z,15.11
2023-05-10T21:10:38.832Z,15.19
2023-05-10T21:13:40.796Z,15.17
2023-05-10T21:16:43.350Z,15.14
2023-05-10T21:19:45.588Z,15.20
2023-05-10T21:22:47.903Z,15.25
2023-05-10T21:25:49.891Z,15.17
2023-05-10T21:28:52.784Z,15.13
2023-05-10T21:31:54.757Z,15.14
2023-05-10T21:34:57.171Z,15.28
2023-05-10T21:37:59.089Z,15.21
2023-05-10T21:41:01.863Z,15.24
2023-05-10T21:44:03.946Z,15.23
2023-05-10T21:47:06.234Z,15.23
2023-05-10T21:50:10.350Z,15.21
2023-05-10T21:53:12.617Z,15.30
2023-05-10T21:56:14.553Z,15.27
2023-05-10T21:59:18.013Z,15.39
2023-05-10T22:02:20.178Z,15.30
2023-05-10T22:05:22.547Z,15.35
2023-05-10T22:08:24.523Z,15.35
2023-05-10T22:11:27.426Z,15.24
2023-05-10T22:14:29.369Z,15.23
2023-05-10T22:17:31.743Z,15.30
2023-05-10T22:20:33.750Z,15.30
2023-05-10T22:23:36.172Z,15.18
2023-05-10T22:26:38.278Z,15.19
2023-05-10T22:29:40.588Z,15.13
2023-05-10T22:32:42.625Z,15.11
2023-05-10T22:35:44.880Z,15.13
2023-05-10T22:38:47.075Z,15.02
2023-05-10T22:41:49.302Z,14.83
2023-05-10T22:44:51.311Z,15.04
2023-05-10T22:47:53.687Z,15.00
2023-05-10T22:50:55.793Z,14.89
2023-05-10T22:53:58.097Z,14.80
2023-05-10T22:57:00.136Z,14.60
2023-05-10T23:00:04.400Z,14.65
2023-05-10T23:03:06.807Z,14.42
2023-05-10T23:06:09.121Z,14.58
2023-05-10T23:09:11.606Z,14.54
2023-05-10T23:12:13.903Z,14.38
2023-05-10T23:15:16.011Z,14.47
2023-05-10T23:18:18.344Z,14.30
2023-05-10T23:21:20.437Z,14.15
2023-05-10T23:24:22.858Z,14.03
2023-05-10T23:27:28.160Z,13.82
2023-05-10T23:30:30.897Z,13.72
2023-05-10T23:33:32.908Z,13.75
2023-05-10T23:36:35.122Z,13.77
2023-05-10T23:39:37.236Z,13.72
2023-05-10T23:42:39.558Z,13.71
2023-05-10T23:45:41.884Z,13.75
2023-05-10T23:48:44.274Z,13.74
2023-05-10T23:51:46.393Z,13.66
2023-05-10T23:54:48.765Z,13.65
2023-05-10T23:57:51.122Z,13.55
